createdAt,value
2018-11-28T00:00:20.675Z,12.93
2018-11-28T00:02:49.396Z,13.27
2018-11-28T00:05:17.858Z,13.60
2018-11-28T00:07:46.151Z,12.88
2018-11-28T00:10:15.014Z,12.53
2018-11-28T00:12:43.331Z,11.70
2018-11-28T00:15:12.715Z,12.35
2018-11-28T00:17:41.804Z,12.47
2018-11-28T00:20:19.840Z,14.13
2018-11-28T00:22:48.410Z,15.03
2018-11-28T00:25:17.951Z,13.07
2018-11-28T00:27:46.272Z,14.27
2018-11-28T00:30:20.227Z,14.00
2018-11-28T00:32:48.911Z,13.93
2018-11-28T00:35:18.632Z,14.77
2018-11-28T00:37:47.061Z,15.53
2018-11-28T00:40:16.628Z,12.47
2018-11-28T00:42:44.952Z,13.58
2018-11-28T00:45:15.359Z,15.00
2018-11-28T00:47:43.684Z,15.18
2018-11-28T00:50:13.074Z,13.97
2018-11-28T00:52:41.420Z,14.27
2018-11-28T00:55:12.915Z,12.33
2018-11-28T00:57:41.341Z,15.57
2018-11-28T01:00:17.515Z,14.00
2018-11-28T01:02:46.107Z,15.10
2018-11-28T01:05:14.602Z,15.50
2018-11-28T01:07:43.436Z,14.20
2018-11-28T01:10:12.968Z,16.20
2018-11-28T01:12:41.309Z,16.27
2018-11-28T01:15:12.556Z,14.00
2018-11-28T01:17:40.886Z,16.03
2018-11-28T01:20:13.079Z,14.37
2018-11-28T01:22:41.435Z,14.17
2018-11-28T01:25:11.197Z,16.07
2018-11-28T01:27:39.489Z,15.47
2018-11-28T01:30:10.321Z,15.20
2018-11-28T01:32:38.623Z,15.20
2018-11-28T01:35:08.545Z,14.63
2018-11-28T01:37:37.540Z,14.78
2018-11-28T01:40:08.205Z,14.37
2018-11-28T01:42:36.494Z,15.37
2018-11-28T01:45:05.469Z,16.70
2018-11-28T01:47:33.756Z,15.70
2018-11-28T01:50:02.054Z,14.90
2018-11-28T01:52:30.966Z,15.40
2018-11-28T01:54:59.283Z,14.03
2018-11-28T01:57:27.583Z,16.55
2018-11-28T01:59:55.928Z,15.67
2018-11-28T02:02:24.235Z,15.07
2018-11-28T02:04:52.567Z,15.80
2018-11-28T02:07:20.909Z,15.47
2018-11-28T02:09:49.208Z,14.37
2018-11-28T02:12:17.511Z,14.23
2018-11-28T02:14:45.861Z,14.77
2018-11-28T02:17:14.154Z,15.70
2018-11-28T02:19:42.470Z,14.23
2018-11-28T02:22:10.797Z,12.37
2018-11-28T02:24:39.124Z,14.47
2018-11-28T02:27:07.439Z,14.13
2018-11-28T02:29:35.796Z,15.93
2018-11-28T02:32:04.118Z,15.08
2018-11-28T02:34:32.418Z,14.43
2018-11-28T02:37:00.735Z,13.80
2018-11-28T02:39:29.057Z,13.67
2018-11-28T02:41:57.629Z,12.13
2018-11-28T02:44:26.105Z,13.10
2018-11-28T02:46:54.393Z,12.83
2018-11-28T02:49:22.720Z,13.40
2018-11-28T02:51:50.989Z,15.30
2018-11-28T02:54:19.261Z,14.25
2018-11-28T02:56:47.551Z,13.40
2018-11-28T02:59:15.822Z,13.68
2018-11-28T03:01:44.058Z,13.17
2018-11-28T03:04:12.290Z,13.57
2018-11-28T03:06:40.514Z,11.37
2018-11-28T03:09:09.252Z,14.00
2018-11-28T03:11:38.519Z,12.37
2018-11-28T03:14:06.998Z,11.87
2018-11-28T03:16:35.259Z,12.98
2018-11-28T03:19:03.528Z,14.33
2018-11-28T03:21:31.757Z,13.30
2018-11-28T03:24:00.263Z,13.00
2018-11-28T03:26:28.491Z,12.57
2018-11-28T03:28:56.769Z,13.33
2018-11-28T03:31:25.014Z,14.47
2018-11-28T03:33:53.283Z,13.13
2018-11-28T03:36:21.527Z,12.50
2018-11-28T03:38:49.826Z,13.20
2018-11-28T03:41:18.634Z,14.63
2018-11-28T03:43:46.937Z,12.17
2018-11-28T03:46:15.215Z,13.57
2018-11-28T03:48:43.465Z,12.37
2018-11-28T03:51:11.714Z,13.73
2018-11-28T03:53:40.021Z,13.57
2018-11-28T03:56:08.307Z,11.60
2018-11-28T03:58:36.551Z,11.73
2018-11-28T04:01:04.996Z,14.33
2018-11-28T04:03:33.238Z,14.73
2018-11-28T04:06:01.494Z,13.43
2018-11-28T04:08:30.141Z,14.17
2018-11-28T04:10:58.414Z,12.13
2018-11-28T04:13:26.677Z,12.63
2018-11-28T04:15:54.904Z,12.13
2018-11-28T04:18:23.657Z,12.50
2018-11-28T04:20:51.886Z,14.47
2018-11-28T04:23:20.159Z,13.98
2018-11-28T04:25:48.422Z,13.03
2018-11-28T04:28:16.646Z,12.23
2018-11-28T04:30:44.906Z,14.27
2018-11-28T04:33:13.162Z,12.43
2018-11-28T04:35:41.402Z,12.70
2018-11-28T04:38:09.646Z,12.83
2018-11-28T04:40:37.974Z,12.05
2018-11-28T04:43:06.200Z,13.33
2018-11-28T04:45:34.495Z,13.58
2018-11-28T04:48:03.224Z,12.60
2018-11-28T04:50:32.421Z,12.90
2018-11-28T04:53:00.891Z,13.33
2018-11-28T04:55:29.139Z,13.80
2018-11-28T04:57:57.426Z,12.17
2018-11-28T05:00:26.365Z,10.70
2018-11-28T05:02:55.677Z,12.60
2018-11-28T05:05:23.951Z,12.67
2018-11-28T05:07:52.771Z,13.63
2018-11-28T05:10:25.574Z,14.85
2018-11-28T05:12:54.578Z,13.07
2018-11-28T05:15:23.931Z,12.10
2018-11-28T05:17:53.531Z,12.57
2018-11-28T05:20:25.119Z,15.07
2018-11-28T05:22:53.370Z,11.17
2018-11-28T05:25:22.586Z,11.55
2018-11-28T05:27:52.012Z,11.53
2018-11-28T05:30:35.760Z,11.50
2018-11-28T05:33:03.456Z,13.50
2018-11-28T05:35:33.944Z,13.73
2018-11-28T05:38:03.718Z,13.13
2018-11-28T05:40:31.982Z,12.67
2018-11-28T05:43:00.217Z,14.37
2018-11-28T05:45:28.553Z,12.90
2018-11-28T05:47:56.762Z,13.17
2018-11-28T05:50:25.075Z,11.93
2018-11-28T05:52:53.306Z,12.23
2018-11-28T05:55:23.277Z,13.20
2018-11-28T05:57:51.547Z,13.37
2018-11-28T06:00:36.079Z,13.73
2018-11-28T06:03:04.997Z,11.70
2018-11-28T06:05:33.467Z,12.35
2018-11-28T06:08:02.041Z,13.10
2018-11-28T06:10:30.296Z,14.00
2018-11-28T06:12:58.582Z,13.00
2018-11-28T06:15:26.867Z,13.07
2018-11-28T06:17:55.187Z,14.33
2018-11-28T06:20:23.438Z,12.77
2018-11-28T06:22:51.663Z,12.30
2018-11-28T06:25:20.403Z,13.60
2018-11-28T06:27:48.670Z,11.83
2018-11-28T06:30:17.790Z,12.57
2018-11-28T06:32:51.187Z,12.43
2018-11-28T06:35:14.612Z,11.70
2018-11-28T06:37:43.323Z,13.20
2018-11-28T06:40:15.568Z,11.60
2018-11-28T06:42:47.649Z,12.60
2018-11-28T06:45:20.277Z,11.03
2018-11-28T06:47:48.534Z,13.43
2018-11-28T06:50:17.850Z,13.00
2018-11-28T06:52:48.054Z,14.03
2018-11-28T06:55:20.486Z,13.00
2018-11-28T06:57:48.795Z,11.97
2018-11-28T07:00:19.595Z,11.87
2018-11-28T07:02:48.478Z,13.83
2018-11-28T07:05:16.751Z,12.43
2018-11-28T07:07:45.157Z,11.07
2018-11-28T07:10:14.710Z,13.10
2018-11-28T07:12:42.989Z,13.17
2018-11-28T07:15:12.325Z,13.10
2018-11-28T07:17:41.191Z,11.93
2018-11-28T07:20:11.749Z,12.07
2018-11-28T07:22:40.013Z,13.53
2018-11-28T07:25:12.673Z,12.17
2018-11-28T07:27:45.042Z,11.80
2018-11-28T07:30:12.378Z,12.20
2018-11-28T07:32:40.717Z,11.73
2018-11-28T07:35:09.759Z,10.97
2018-11-28T07:37:38.637Z,12.57
2018-11-28T07:40:19.597Z,12.70
2018-11-28T07:42:54.658Z,12.87
2018-11-28T07:45:22.940Z,12.17
2018-11-28T07:47:51.165Z,12.37
2018-11-28T07:50:19.440Z,15.87
2018-11-28T07:52:47.707Z,13.77
2018-11-28T07:55:15.968Z,11.03
2018-11-28T07:57:44.275Z,13.20
2018-11-28T08:00:13.856Z,13.80
2018-11-28T08:02:42.497Z,12.43
2018-11-28T08:05:11.377Z,12.20
2018-11-28T08:07:39.623Z,12.07
2018-11-28T08:10:21.928Z,12.97
2018-11-28T08:12:54.283Z,11.33
2018-11-28T08:15:22.538Z,12.83
2018-11-28T08:17:50.939Z,11.80
2018-11-28T08:20:19.203Z,14.27
2018-11-28T08:22:47.458Z,14.40
2018-11-28T08:25:16.635Z,13.87
2018-11-28T08:27:46.151Z,14.47
2018-11-28T08:30:19.907Z,14.43
2018-11-28T08:32:47.869Z,15.53
2018-11-28T08:35:16.155Z,14.27
2018-11-28T08:37:44.389Z,14.63
2018-11-28T08:40:13.918Z,16.77
2018-11-28T08:42:42.245Z,15.67
2018-11-28T08:45:13.255Z,14.70
2018-11-28T08:47:41.517Z,14.90
2018-11-28T08:50:18.284Z,14.70
2018-11-28T08:52:46.600Z,14.80
2018-11-28T08:55:14.977Z,15.40
2018-11-28T08:57:43.294Z,17.00
2018-11-28T09:00:16.784Z,15.07
2018-11-28T09:02:46.035Z,17.77
2018-11-28T09:05:14.702Z,14.70
2018-11-28T09:07:43.005Z,14.70
2018-11-28T09:10:13.465Z,17.40
2018-11-28T09:12:41.770Z,15.00
2018-11-28T09:15:12.165Z,18.40
2018-11-28T09:17:40.597Z,16.63
2018-11-28T09:20:10.282Z,17.33
2018-11-28T09:22:38.619Z,17.40
2018-11-28T09:25:08.764Z,19.00
2018-11-28T09:27:37.059Z,19.60
2018-11-28T09:30:08.575Z,20.17
2018-11-28T09:32:36.823Z,18.27
2018-11-28T09:35:06.621Z,19.43
2018-11-28T09:37:34.873Z,21.73
2018-11-28T09:40:04.307Z,20.43
2018-11-28T09:42:32.579Z,21.07
2018-11-28T09:45:00.842Z,21.83
2018-11-28T09:47:29.157Z,22.53
2018-11-28T09:49:57.420Z,22.57
2018-11-28T09:52:25.667Z,21.20
2018-11-28T09:54:53.911Z,20.13
2018-11-28T09:57:22.801Z,21.57
2018-11-28T09:59:51.053Z,23.60
2018-11-28T10:02:19.350Z,21.77
2018-11-28T10:04:47.599Z,21.60
2018-11-28T10:07:15.899Z,22.30
2018-11-28T10:09:44.195Z,25.00
2018-11-28T10:12:12.521Z,24.20
2018-11-28T10:14:40.788Z,24.27
2018-11-28T10:17:09.065Z,24.07
2018-11-28T10:19:37.297Z,26.57
2018-11-28T10:22:05.955Z,25.93
2018-11-28T10:24:34.444Z,25.10
2018-11-28T10:27:02.531Z,25.00
2018-11-28T10:29:30.791Z,29.17
2018-11-28T10:31:59.123Z,26.70
2018-11-28T10:34:29.576Z,27.70
2018-11-28T10:36:55.691Z,27.73
2018-11-28T10:39:23.907Z,26.47
2018-11-28T10:41:52.210Z,27.20
2018-11-28T10:44:20.470Z,31.27
2018-11-28T10:46:48.725Z,28.30
2018-11-28T10:49:16.991Z,27.63
2018-11-28T10:51:50.215Z,32.10
2018-11-28T10:54:13.562Z,29.03
2018-11-28T10:56:41.799Z,30.03
2018-11-28T10:59:10.230Z,29.30
2018-11-28T11:01:44.043Z,32.03
2018-11-28T11:04:14.501Z,29.93
2018-11-28T11:06:48.518Z,28.37
2018-11-28T11:10:20.230Z,28.87
2018-11-28T11:12:53.929Z,31.60
2018-11-28T11:15:22.146Z,33.73
2018-11-28T11:17:50.962Z,32.97
2018-11-28T11:20:19.221Z,33.50
2018-11-28T11:22:47.494Z,33.97
2018-11-28T11:25:15.730Z,35.17
2018-11-28T11:27:44.003Z,35.83
2018-11-28T11:30:12.271Z,36.43
2018-11-28T11:32:40.603Z,35.77
2018-11-28T11:35:09.645Z,38.43
2018-11-28T11:37:37.972Z,40.20
2018-11-28T11:40:09.317Z,40.97
2018-11-28T11:42:37.580Z,38.33
2018-11-28T11:45:08.086Z,38.83
2018-11-28T11:47:36.379Z,39.33
2018-11-28T11:50:07.290Z,40.23
2018-11-28T11:52:35.588Z,41.10
2018-11-28T11:55:04.125Z,44.60
2018-11-28T11:57:32.418Z,42.87
2018-11-28T12:00:02.010Z,38.37
2018-11-28T12:02:28.919Z,38.60
2018-11-28T12:04:57.154Z,41.10
2018-11-28T12:07:25.415Z,43.57
2018-11-28T12:09:53.807Z,38.57
2018-11-28T12:12:22.088Z,40.97
2018-11-28T12:14:50.349Z,42.73
2018-11-28T12:17:18.621Z,40.50
2018-11-28T12:19:46.929Z,42.13
2018-11-28T12:22:15.231Z,39.00
2018-11-28T12:24:43.560Z,38.83
2018-11-28T12:27:11.820Z,40.73
2018-11-28T12:29:40.091Z,42.13
2018-11-28T12:32:08.386Z,38.40
2018-11-28T12:34:36.651Z,38.53
2018-11-28T12:37:04.947Z,41.37
2018-11-28T12:39:33.229Z,38.30
2018-11-28T12:42:01.497Z,36.73
2018-11-28T12:44:29.728Z,34.70
2018-11-28T12:46:58.033Z,37.27
2018-11-28T12:49:26.314Z,34.60
2018-11-28T12:51:54.611Z,38.80
2018-11-28T12:54:22.874Z,34.73
2018-11-28T12:56:51.168Z,35.37
2018-11-28T12:59:19.743Z,39.27
2018-11-28T13:01:47.966Z,38.20
2018-11-28T13:04:16.282Z,35.40
2018-11-28T13:06:44.592Z,37.80
2018-11-28T13:09:12.804Z,39.13
2018-11-28T13:11:41.123Z,40.53
2018-11-28T13:14:09.334Z,34.43
2018-11-28T13:16:37.586Z,33.90
2018-11-28T13:19:05.829Z,39.33
2018-11-28T13:21:34.704Z,35.93
2018-11-28T13:24:02.961Z,36.07
2018-11-28T13:26:31.241Z,34.53
2018-11-28T13:28:59.497Z,34.63
2018-11-28T13:31:27.923Z,37.50
2018-11-28T13:33:56.215Z,35.63
2018-11-28T13:36:24.497Z,33.67
2018-11-28T13:38:52.836Z,34.47
2018-11-28T13:41:21.116Z,37.17
2018-11-28T13:43:49.864Z,32.10
2018-11-28T13:46:18.453Z,30.77
2018-11-28T13:48:46.552Z,34.13
2018-11-28T13:51:14.906Z,35.70
2018-11-28T13:53:43.168Z,34.20
2018-11-28T13:58:39.748Z,34.33
2018-11-28T14:01:08.008Z,32.63
2018-11-28T14:03:36.278Z,36.57
2018-11-28T14:06:04.855Z,35.20
2018-11-28T14:08:33.096Z,33.23
2018-11-28T14:11:01.330Z,31.80
2018-11-28T14:13:29.610Z,33.80
2018-11-28T14:15:57.888Z,35.13
2018-11-28T14:18:26.860Z,31.20
2018-11-28T14:20:55.115Z,33.17
2018-11-28T14:23:23.336Z,33.10
2018-11-28T14:25:51.616Z,28.40
2018-11-28T14:28:19.892Z,30.67
2018-11-28T14:30:48.704Z,29.47
2018-11-28T14:33:16.999Z,33.40
2018-11-28T14:35:45.317Z,32.20
2018-11-28T14:38:13.595Z,30.93
2018-11-28T14:40:41.963Z,31.97
2018-11-28T14:43:10.371Z,33.43
2018-11-28T14:45:38.618Z,33.30
2018-11-28T14:48:06.880Z,31.10
2018-11-28T14:50:35.251Z,33.53
2018-11-28T14:53:03.823Z,30.10
2018-11-28T14:55:33.683Z,28.43
2018-11-28T14:58:01.998Z,29.27
2018-11-28T15:00:31.024Z,31.73
2018-11-28T15:03:02.666Z,32.80
2018-11-28T15:08:22.156Z,31.53
2018-11-28T15:11:21.584Z,27.77
2018-11-28T15:13:49.786Z,31.77
2018-11-28T15:16:18.002Z,31.97
2018-11-28T15:18:46.867Z,27.03
2018-11-28T15:21:15.086Z,29.40
2018-11-28T15:23:43.364Z,29.43
2018-11-28T15:26:11.987Z,27.40
2018-11-28T15:28:40.565Z,29.27
2018-11-28T15:31:08.526Z,30.10
2018-11-28T15:33:36.788Z,31.13
2018-11-28T15:36:05.066Z,28.30
2018-11-28T15:38:33.383Z,32.25
2018-11-28T15:41:01.635Z,29.07
2018-11-28T15:43:29.974Z,28.70
2018-11-28T15:45:58.329Z,30.63
2018-11-28T15:48:26.581Z,30.07
2018-11-28T15:50:54.852Z,31.03
2018-11-28T15:53:23.176Z,27.67
2018-11-28T15:55:51.466Z,29.27
2018-11-28T15:58:19.740Z,28.20
2018-11-28T16:00:48.058Z,28.90
2018-11-28T16:03:16.363Z,28.60
2018-11-28T16:05:44.852Z,31.43
2018-11-28T16:08:13.231Z,28.37
2018-11-28T16:10:43.356Z,31.03
2018-11-28T16:13:14.002Z,28.97
2018-11-28T16:15:47.318Z,27.60
2018-11-28T16:18:15.680Z,29.47
2018-11-28T16:20:43.968Z,31.13
2018-11-28T16:23:12.301Z,33.18
2018-11-28T16:25:40.582Z,32.20
2018-11-28T16:28:10.038Z,33.37
2018-11-28T16:30:38.309Z,29.77
2018-11-28T16:33:07.136Z,32.00
2018-11-28T16:35:36.314Z,30.43
2018-11-28T16:38:04.744Z,31.20
2018-11-28T16:40:33.109Z,30.27
2018-11-28T16:43:01.489Z,32.07
2018-11-28T16:45:29.832Z,29.95
2018-11-28T16:47:58.266Z,29.13
2018-11-28T16:50:26.597Z,33.10
2018-11-28T16:52:54.967Z,31.57
2018-11-28T16:55:23.231Z,32.17
2018-11-28T16:57:52.736Z,29.83
2018-11-28T17:00:24.144Z,31.67
2018-11-28T17:02:53.871Z,30.73
2018-11-28T17:05:22.869Z,28.20
2018-11-28T17:07:52.463Z,31.70
2018-11-28T17:10:23.059Z,29.57
2018-11-28T17:12:51.667Z,32.50
2018-11-28T17:15:20.344Z,30.47
2018-11-28T17:17:48.691Z,33.27
2018-11-28T17:20:20.649Z,32.10
2018-11-28T17:22:49.839Z,34.13
2018-11-28T17:25:20.303Z,32.77
2018-11-28T17:27:48.741Z,31.60
2018-11-28T17:30:19.095Z,30.43
2018-11-28T17:32:47.590Z,29.60
2018-11-28T17:35:16.047Z,32.83
2018-11-28T17:37:44.339Z,29.20
2018-11-28T17:40:18.915Z,27.87
2018-11-28T17:42:49.450Z,31.73
2018-11-28T17:45:18.497Z,29.87
2018-11-28T17:47:46.877Z,29.57
2018-11-28T17:50:18.968Z,33.10
2018-11-28T17:52:54.932Z,30.60
2018-11-28T17:55:23.648Z,31.60
2018-11-28T17:57:52.024Z,29.40
2018-11-28T18:00:21.366Z,30.50
2018-11-28T18:02:49.727Z,32.17
2018-11-28T18:05:18.050Z,29.47
2018-11-28T18:07:46.379Z,31.00
2018-11-28T18:10:16.979Z,28.77
2018-11-28T18:13:00.844Z,30.13
2018-11-28T18:15:29.170Z,31.00
2018-11-28T18:17:57.706Z,29.90
2018-11-28T18:20:26.067Z,30.27
2018-11-28T18:22:55.031Z,31.67
2018-11-28T18:25:24.194Z,27.93
2018-11-28T18:27:53.126Z,29.80
2018-11-28T18:30:21.610Z,27.90
2018-11-28T18:32:49.939Z,30.23
2018-11-28T18:35:18.318Z,27.63
2018-11-28T18:37:46.839Z,32.60
2018-11-28T18:40:15.503Z,29.57
2018-11-28T18:42:44.120Z,29.83
2018-11-28T18:45:14.461Z,30.60
2018-11-28T18:47:42.870Z,30.67
2018-11-28T18:50:12.589Z,28.63
2018-11-28T18:52:41.047Z,29.63
2018-11-28T18:55:16.732Z,27.58
2018-11-28T18:57:44.264Z,32.10
2018-11-28T19:00:16.736Z,29.67
2018-11-28T19:02:45.421Z,28.53
2018-11-28T19:05:13.861Z,30.40
2018-11-28T19:07:42.512Z,27.53
2018-11-28T19:10:17.937Z,31.17
2018-11-28T19:12:47.284Z,32.57
2018-11-28T19:15:19.846Z,30.90
2018-11-28T19:17:48.964Z,30.23
2018-11-28T19:20:19.753Z,30.07
2018-11-28T19:22:49.132Z,27.77
2018-11-28T19:25:19.466Z,31.40
2018-11-28T19:27:48.332Z,29.80
2018-11-28T19:30:22.941Z,32.03
2018-11-28T19:32:51.373Z,30.50
2018-11-28T19:35:21.693Z,31.00
2018-11-28T19:37:50.778Z,30.00
2018-11-28T19:40:22.515Z,33.47
2018-11-28T19:42:50.852Z,32.27
2018-11-28T19:45:19.238Z,29.07
2018-11-28T19:47:48.261Z,29.80
2018-11-28T19:50:18.653Z,28.23
2018-11-28T19:52:47.341Z,29.55
2018-11-28T19:55:15.800Z,31.23
2018-11-28T19:57:45.441Z,32.03
2018-11-28T20:00:16.490Z,28.23
2018-11-28T20:02:45.513Z,28.73
2018-11-28T20:05:16.126Z,33.50
2018-11-28T20:07:47.661Z,29.20
2018-11-28T20:10:17.213Z,31.80
2018-11-28T20:12:45.991Z,29.73
2018-11-28T20:15:19.398Z,32.60
2018-11-28T20:17:48.170Z,30.63
2018-11-28T20:20:17.868Z,31.47
2018-11-28T20:22:46.481Z,30.27
2018-11-28T20:25:15.784Z,29.50
2018-11-28T20:27:45.730Z,29.17
2018-11-28T20:30:17.507Z,29.20
2018-11-28T20:32:46.123Z,30.60
2018-11-28T20:35:17.389Z,30.17
2018-11-28T20:37:46.947Z,31.73
2018-11-28T20:40:16.510Z,27.83
2018-11-28T20:42:47.612Z,31.33
2018-11-28T20:45:16.404Z,30.10
2018-11-28T20:47:44.862Z,27.77
2018-11-28T20:50:25.570Z,31.53
2018-11-28T20:52:57.988Z,31.90
2018-11-28T20:55:26.384Z,30.93
2018-11-28T20:57:55.727Z,32.63
2018-11-28T21:00:25.797Z,28.60
2018-11-28T21:02:55.291Z,31.03
2018-11-28T21:05:23.762Z,32.10
2018-11-28T21:07:52.457Z,30.10
2018-11-28T21:10:26.445Z,30.60
2018-11-28T21:12:56.829Z,31.90
2018-11-28T21:15:25.172Z,27.73
2018-11-28T21:17:53.501Z,29.33
2018-11-28T21:20:22.634Z,32.30
2018-11-28T21:22:52.382Z,29.97
2018-11-28T21:25:21.374Z,30.87
2018-11-28T21:27:51.012Z,30.43
2018-11-28T21:30:20.114Z,28.43
2018-11-28T21:32:49.638Z,31.50
2018-11-28T21:35:24.146Z,28.50
2018-11-28T21:37:52.507Z,35.13
2018-11-28T21:40:20.968Z,28.47
2018-11-28T21:42:49.358Z,28.63
2018-11-28T21:45:18.741Z,30.50
2018-11-28T21:47:47.160Z,29.07
2018-11-28T21:50:16.452Z,30.50
2018-11-28T21:52:44.862Z,31.00
2018-11-28T21:55:14.437Z,31.30
2018-11-28T21:57:42.751Z,30.30
2018-11-28T22:00:17.606Z,29.57
2018-11-28T22:02:46.050Z,28.50
2018-11-28T22:05:15.251Z,31.37
2018-11-28T22:07:43.572Z,30.47
2018-11-28T22:10:16.737Z,30.83
2018-11-28T22:12:45.102Z,31.27
2018-11-28T22:15:15.028Z,30.70
2018-11-28T22:17:45.301Z,31.17
2018-11-28T22:20:14.298Z,30.80
2018-11-28T22:22:42.799Z,30.37
2018-11-28T22:25:27.612Z,31.37
2018-11-28T22:27:56.015Z,33.30
2018-11-28T22:30:27.338Z,28.80
2018-11-28T22:32:56.671Z,30.73
2018-11-28T22:35:25.052Z,29.23
2018-11-28T22:37:53.375Z,31.20
2018-11-28T22:40:22.890Z,27.83
2018-11-28T22:42:51.169Z,29.50
2018-11-28T22:45:21.502Z,30.07
2018-11-28T22:47:49.776Z,29.83
2018-11-28T22:50:18.035Z,31.80
2018-11-28T22:52:46.333Z,28.50
2018-11-28T22:55:15.346Z,29.93
2018-11-28T22:57:43.606Z,31.13
2018-11-28T23:00:15.022Z,30.67
2018-11-28T23:03:02.650Z,32.00
2018-11-28T23:05:32.079Z,31.77
2018-11-28T23:08:01.278Z,29.80
2018-11-28T23:10:29.547Z,29.30
2018-11-28T23:12:58.758Z,29.37
2018-11-28T23:15:27.004Z,31.50
2018-11-28T23:17:55.594Z,30.70
2018-11-28T23:20:23.670Z,33.23
2018-11-28T23:22:52.363Z,32.80
2018-11-28T23:25:20.634Z,29.90
2018-11-28T23:27:48.934Z,32.40
2018-11-28T23:30:18.079Z,30.57
2018-11-28T23:32:46.982Z,30.00
2018-11-28T23:35:15.283Z,31.97
2018-11-28T23:37:44.698Z,28.60
2018-11-28T23:40:17.296Z,30.63
2018-11-28T23:42:45.559Z,29.33
2018-11-28T23:45:14.323Z,30.73
2018-11-28T23:47:42.605Z,31.57
2018-11-28T23:50:12.078Z,31.70
2018-11-28T23:52:40.391Z,31.37
2018-11-28T23:55:20.635Z,31.57
2018-11-28T23:57:48.955Z,34.40
